Aurora, SD

1:05 AM CDT on July 26, 2016 (GMT -0500)
Aurora | | Change Station

Elev 1634 ft 44.29 °N, 96.68 °W | Updated 17 seconds ago

Clear
Clear
67.6 °F
Feels Like 67.6 °F
N
0.0
Wind Variable Wind from NNW
Gusts 0.0 mph

Today
High -- | Low -- °F
--% Chance of Precip.
Yesterday
High -- | Low -- °F
Precip. -- in
Pressure 30.08 in
Visibility 10.0 miles
Clouds Clear
Dew Point 64 °F
Humidity 87%
Rainfall 0.00 in
Snow Depth Not available.
6:08 AM 8:57 PM
Waning Gibbous, 58% visible
METAR KBKX 260556Z AUTO 18006KT 10SM CLR 21/17 A3007 RMK AO2 SLP185 6//// T02060172 10278 20206 402940150 51006
Pressure 30.08 in
Visibility 10.0 miles
Clouds Clear
Dew Point 64 °F
Humidity 87%
Rainfall 0.00 in
Snow Depth Not available.
6:08 AM 8:57 PM
Waning Gibbous, 58% visible
METAR KBKX 260556Z AUTO 18006KT 10SM CLR 21/17 A3007 RMK AO2 SLP185 6//// T02060172 10278 20206 402940150 51006

10-Day Weather Forecast

Almanac

Astronomy

Jul. 26, 2016 Rise Set
Actual Time
Civil Twilight
Nautical Twilight
Astronomical Twilight
Moon
Length of Visible Light
Length of Day
Tomorrow will be .
, % of the Moon is Illuminated

Today's Extremes

State Highs State Lows

Community

WunderPhotos

Upload Photos

1,927,547 photos uploaded!

WunderBlog® & News

Nearby

Air Quality

  Air Quality AQ Index Pollutant
Not available.

Snow Depth

Station Depth Elevation

Earthquake Activity

City Distance Mag. Time & Date
Minimum magnitude displayed is 2.5.

Coastal Water Temperatures

Place Temperature

Stations

Nearby Weather Stations

Station Location Temp. Windchill Dew Point Humidity Wind Precip. Elev Updated Type
                   

Watches & Warnings

There are currently no watches in effect.